createdAt,value
2018-06-05T00:00:55.837Z,17.07
2018-06-05T00:03:22.714Z,16.03
2018-06-05T00:05:50.509Z,17.23
2018-06-05T00:08:17.390Z,17.00
2018-06-05T00:10:44.299Z,17.10
2018-06-05T00:13:11.347Z,16.80
2018-06-05T00:15:38.286Z,15.70
2018-06-05T00:18:05.228Z,18.73
2018-06-05T00:20:32.209Z,18.00
2018-06-05T00:22:59.100Z,17.23
2018-06-05T00:25:26.874Z,17.87
2018-06-05T00:27:53.775Z,17.63
2018-06-05T00:30:20.779Z,18.10
2018-06-05T00:32:47.735Z,18.87
2018-06-05T00:35:14.808Z,17.63
2018-06-05T00:37:41.824Z,19.40
2018-06-05T00:40:08.693Z,19.97
2018-06-05T00:42:35.636Z,19.07
2018-06-05T00:45:02.619Z,19.37
2018-06-05T00:47:29.566Z,19.73
2018-06-05T00:49:56.511Z,20.10
2018-06-05T00:52:23.494Z,18.90
2018-06-05T00:54:50.469Z,20.00
2018-06-05T00:57:17.458Z,19.20
2018-06-05T00:59:44.354Z,20.53
2018-06-05T01:02:11.338Z,20.10
2018-06-05T01:04:38.249Z,22.00
2018-06-05T01:07:05.121Z,22.23
2018-06-05T01:09:32.061Z,20.83
2018-06-05T01:11:59.109Z,22.70
2018-06-05T01:14:26.067Z,21.93
2018-06-05T01:16:52.966Z,23.13
2018-06-05T01:19:19.966Z,22.73
2018-06-05T01:21:47.599Z,20.43
2018-06-05T01:24:14.595Z,24.80
2018-06-05T01:26:42.281Z,21.80
2018-06-05T01:29:09.215Z,23.00
2018-06-05T01:31:36.874Z,22.50
2018-06-05T01:34:04.555Z,21.90
2018-06-05T01:36:31.513Z,22.53
2018-06-05T01:38:58.532Z,23.90
2018-06-05T01:41:26.196Z,24.23
2018-06-05T01:43:53.887Z,23.50
2018-06-05T01:46:20.909Z,24.60
2018-06-05T01:48:47.853Z,23.90
2018-06-05T01:51:15.513Z,23.23
2018-06-05T01:53:42.461Z,24.73
2018-06-05T01:56:10.293Z,24.57
2018-06-05T01:58:37.147Z,25.50
2018-06-05T02:01:04.035Z,24.80
2018-06-05T02:03:30.988Z,26.37
2018-06-05T02:05:57.910Z,26.97
2018-06-05T02:08:24.849Z,24.67
2018-06-05T02:10:52.472Z,26.80
2018-06-05T02:13:19.359Z,25.80
2018-06-05T02:15:47.082Z,24.97
2018-06-05T02:18:13.963Z,27.43
2018-06-05T02:20:41.660Z,24.00
2018-06-05T02:23:08.540Z,28.17
2018-06-05T02:25:35.458Z,27.07
2018-06-05T02:28:02.439Z,25.90
2018-06-05T02:30:29.320Z,26.70
2018-06-05T02:32:56.292Z,27.30
2018-06-05T02:35:23.202Z,29.40
2018-06-05T02:37:50.921Z,26.67
2018-06-05T02:40:17.786Z,29.10
2018-06-05T02:42:44.681Z,28.77
2018-06-05T02:45:11.623Z,28.17
2018-06-05T02:47:38.518Z,31.27
2018-06-05T02:50:05.486Z,31.03
2018-06-05T02:52:33.099Z,28.40
2018-06-05T02:55:00.025Z,28.90
2018-06-05T02:57:27.045Z,31.00
2018-06-05T02:59:54.653Z,29.80
2018-06-05T03:02:21.520Z,30.10
2018-06-05T03:04:48.463Z,28.43
2018-06-05T03:07:15.413Z,32.37
2018-06-05T03:09:43.216Z,33.33
2018-06-05T03:12:10.831Z,30.77
2018-06-05T03:14:37.796Z,31.07
2018-06-05T03:17:04.825Z,31.27
2018-06-05T03:19:31.726Z,32.20
2018-06-05T03:21:58.701Z,32.87
2018-06-05T03:24:25.642Z,31.83
2018-06-05T03:26:52.625Z,32.63
2018-06-05T03:29:19.520Z,34.07
2018-06-05T03:31:46.440Z,29.53
2018-06-05T03:34:14.185Z,31.10
2018-06-05T03:36:41.071Z,28.57
2018-06-05T03:39:08.048Z,32.93
2018-06-05T03:41:34.929Z,33.27
2018-06-05T03:44:01.863Z,33.00
2018-06-05T03:46:28.899Z,35.33
2018-06-05T03:48:55.821Z,32.43
2018-06-05T03:51:22.700Z,33.63
2018-06-05T03:53:49.624Z,31.03
2018-06-05T03:56:16.592Z,35.03
2018-06-05T03:58:43.467Z,31.77
2018-06-05T04:01:11.162Z,31.67
2018-06-05T04:03:38.041Z,33.97
2018-06-05T04:06:04.981Z,32.07
2018-06-05T04:08:31.925Z,34.00
2018-06-05T04:10:58.878Z,34.90
2018-06-05T04:13:25.748Z,36.80
2018-06-05T04:15:53.437Z,33.80
2018-06-05T04:18:20.720Z,32.50
2018-06-05T04:20:48.452Z,36.70
2018-06-05T04:23:15.396Z,29.50
2018-06-05T04:25:44.583Z,34.67
2018-06-05T04:28:11.497Z,32.47
2018-06-05T04:30:38.458Z,32.20
2018-06-05T04:33:06.093Z,31.10
2018-06-05T04:35:33.208Z,29.53
2018-06-05T04:38:00.336Z,32.20
2018-06-05T04:40:27.210Z,27.80
2018-06-05T04:42:54.161Z,28.70
2018-06-05T04:45:21.056Z,31.53
2018-06-05T04:47:48.077Z,28.57
2018-06-05T04:50:14.948Z,30.17
2018-06-05T04:52:41.828Z,27.60
2018-06-05T04:55:08.799Z,26.70
2018-06-05T04:57:36.114Z,23.87
2018-06-05T05:00:03.450Z,24.10
2018-06-05T05:02:31.068Z,26.13
2018-06-05T05:04:58.022Z,25.23
2018-06-05T05:07:24.956Z,24.10
2018-06-05T05:09:53.690Z,23.63
2018-06-05T05:12:25.007Z,23.23
2018-06-05T05:14:52.420Z,23.93
2018-06-05T05:17:20.667Z,22.70
2018-06-05T05:19:47.640Z,25.97
2018-06-05T05:22:15.414Z,23.87
2018-06-05T05:24:42.481Z,23.90
2018-06-05T05:27:10.332Z,23.00
2018-06-05T05:29:39.084Z,25.00
2018-06-05T05:32:05.981Z,23.07
2018-06-05T05:34:43.234Z,24.43
2018-06-05T05:37:10.355Z,25.67
2018-06-05T05:39:44.793Z,23.37
2018-06-05T05:42:11.746Z,24.10
2018-06-05T05:44:40.958Z,24.97
2018-06-05T05:47:11.523Z,27.33
2018-06-05T05:49:38.666Z,26.40
2018-06-05T05:52:07.190Z,23.10
2018-06-05T05:54:37.025Z,24.07
2018-06-05T05:57:04.770Z,28.27
2018-06-05T05:59:31.633Z,24.60
2018-06-05T06:01:58.655Z,24.80
2018-06-05T06:04:25.530Z,24.30
2018-06-05T06:06:52.419Z,25.50
2018-06-05T06:09:19.404Z,29.73
2018-06-05T06:11:46.277Z,26.53
2018-06-05T06:14:13.961Z,26.87
2018-06-05T06:16:40.886Z,26.43
2018-06-05T06:19:08.557Z,26.20
2018-06-05T06:21:36.144Z,27.57
2018-06-05T06:24:03.198Z,27.57
2018-06-05T06:26:30.073Z,26.70
2018-06-05T06:28:56.979Z,25.70
2018-06-05T06:31:23.960Z,24.33
2018-06-05T06:33:50.906Z,25.13
2018-06-05T06:36:17.813Z,23.40
2018-06-05T06:38:44.767Z,24.13
2018-06-05T06:41:11.774Z,25.80
2018-06-05T06:43:39.853Z,28.13
2018-06-05T06:46:06.890Z,27.00
2018-06-05T06:48:33.771Z,26.20
2018-06-05T06:51:00.655Z,24.87
2018-06-05T06:53:27.592Z,23.07
2018-06-05T06:55:54.493Z,24.77
2018-06-05T06:58:22.086Z,22.57
2018-06-05T07:00:49.338Z,25.93
2018-06-05T07:03:16.370Z,24.23
2018-06-05T07:05:43.241Z,25.00
2018-06-05T07:08:10.190Z,27.30
2018-06-05T07:10:37.091Z,27.10
2018-06-05T07:13:04.056Z,29.20
2018-06-05T07:15:31.026Z,27.33
2018-06-05T07:17:57.998Z,26.97
2018-06-05T07:20:25.730Z,24.33
2018-06-05T07:22:52.746Z,25.30
2018-06-05T07:25:19.620Z,25.17
2018-06-05T07:27:46.594Z,23.53
2018-06-05T07:30:13.506Z,25.60
2018-06-05T07:32:40.501Z,26.43
2018-06-05T07:35:08.197Z,22.60
2018-06-05T07:37:35.246Z,23.93
2018-06-05T07:40:02.183Z,27.83
2018-06-05T07:42:29.164Z,26.83
2018-06-05T07:44:56.081Z,26.03
2018-06-05T07:47:23.034Z,27.13
2018-06-05T07:49:50.068Z,25.20
2018-06-05T07:52:19.247Z,23.93
2018-06-05T07:54:46.253Z,26.90
2018-06-05T07:57:13.201Z,25.40
2018-06-05T07:59:40.189Z,23.17
2018-06-05T08:02:07.806Z,26.00
2018-06-05T08:04:34.748Z,25.77
2018-06-05T08:07:01.643Z,25.10
2018-06-05T08:09:28.528Z,26.20
2018-06-05T08:11:55.532Z,24.67
2018-06-05T08:14:23.201Z,21.57
2018-06-05T08:16:50.853Z,22.00
2018-06-05T08:19:17.806Z,21.10
2018-06-05T08:21:44.738Z,22.83
2018-06-05T08:24:11.889Z,22.20
2018-06-05T08:26:38.864Z,23.70
2018-06-05T08:29:06.629Z,23.87
2018-06-05T08:31:34.276Z,21.37
2018-06-05T08:34:01.925Z,20.50
2018-06-05T08:36:28.972Z,20.57
2018-06-05T08:38:55.946Z,22.20
2018-06-05T08:41:23.581Z,19.67
2018-06-05T08:43:51.475Z,18.90
2018-06-05T08:46:18.500Z,20.03
2018-06-05T08:48:45.496Z,19.30
2018-06-05T08:51:13.043Z,19.97
2018-06-05T08:53:40.772Z,19.63
2018-06-05T08:56:07.796Z,21.40
2018-06-05T08:58:34.770Z,20.53
2018-06-05T09:01:02.582Z,21.00
2018-06-05T09:03:29.466Z,23.37
2018-06-05T09:05:56.389Z,21.10
2018-06-05T09:08:23.389Z,23.00
2018-06-05T09:10:50.321Z,19.67
2018-06-05T09:13:17.342Z,17.43
2018-06-05T09:15:44.306Z,18.90
2018-06-05T09:18:11.312Z,19.40
2018-06-05T09:20:38.234Z,18.83
2018-06-05T09:23:05.269Z,18.80
2018-06-05T09:25:32.209Z,21.10
2018-06-05T09:27:59.102Z,18.53
2018-06-05T09:30:33.082Z,20.43
2018-06-05T09:32:59.970Z,18.00
2018-06-05T09:35:26.942Z,18.33
2018-06-05T09:37:53.904Z,19.53
2018-06-05T09:40:20.813Z,18.40
2018-06-05T09:42:47.697Z,18.27
2018-06-05T09:45:14.649Z,18.30
2018-06-05T09:47:41.553Z,20.67
2018-06-05T09:50:08.538Z,18.63
2018-06-05T09:52:35.424Z,18.20
2018-06-05T09:55:02.389Z,16.33
2018-06-05T09:57:29.344Z,19.80
2018-06-05T09:59:56.345Z,20.20
2018-06-05T10:02:23.299Z,17.60
2018-06-05T10:04:50.237Z,18.97
2018-06-05T10:07:17.213Z,17.77
2018-06-05T10:09:44.163Z,16.67
2018-06-05T10:12:11.123Z,17.23
2018-06-05T10:14:38.045Z,18.80
2018-06-05T10:17:05.094Z,17.73
2018-06-05T10:19:32.000Z,19.90
2018-06-05T10:21:58.941Z,17.83
2018-06-05T10:24:26.636Z,17.33
2018-06-05T10:26:53.587Z,20.40
2018-06-05T10:29:20.627Z,17.23
2018-06-05T10:31:47.524Z,17.47
2018-06-05T10:34:14.413Z,18.10
2018-06-05T10:36:41.418Z,18.77
2018-06-05T10:39:08.331Z,19.10
2018-06-05T10:41:35.301Z,15.30
2018-06-05T10:44:02.353Z,15.77
2018-06-05T10:46:29.938Z,18.40
2018-06-05T10:49:08.291Z,15.90
2018-06-05T10:51:35.184Z,15.13
2018-06-05T10:54:03.387Z,13.90
2018-06-05T10:56:31.347Z,15.43
2018-06-05T10:59:06.467Z,13.83
2018-06-05T11:01:33.790Z,15.27
2018-06-05T11:04:05.333Z,14.77
2018-06-05T11:06:32.338Z,14.00
2018-06-05T11:09:00.048Z,14.33
2018-06-05T11:11:27.031Z,15.80
2018-06-05T11:14:04.597Z,15.57
2018-06-05T11:16:37.177Z,14.00
2018-06-05T11:19:04.317Z,13.77
2018-06-05T11:21:31.412Z,13.63
2018-06-05T11:23:59.037Z,14.60
2018-06-05T11:26:26.014Z,14.70
2018-06-05T11:28:52.986Z,12.67
2018-06-05T11:31:20.722Z,13.63
2018-06-05T11:33:49.040Z,12.33
2018-06-05T11:36:19.513Z,12.67
2018-06-05T11:38:48.052Z,11.70
2018-06-05T11:41:17.189Z,13.73
2018-06-05T11:43:46.961Z,13.67
2018-06-05T11:46:14.626Z,13.47
2018-06-05T11:48:53.160Z,12.83
2018-06-05T11:51:22.266Z,11.47
2018-06-05T11:53:50.140Z,12.50
2018-06-05T11:56:18.186Z,14.10
2018-06-05T11:58:45.354Z,11.73
2018-06-05T12:01:12.315Z,12.10
2018-06-05T12:03:40.173Z,12.27
2018-06-05T12:06:07.509Z,12.53
2018-06-05T12:08:35.029Z,12.00
2018-06-05T12:11:02.606Z,11.40
2018-06-05T12:13:31.389Z,11.57
2018-06-05T12:15:59.686Z,10.83
2018-06-05T12:18:31.640Z,11.60
2018-06-05T12:21:00.316Z,10.40
2018-06-05T12:23:27.949Z,10.20
2018-06-05T12:25:54.908Z,9.80
2018-06-05T12:28:21.894Z,10.03
2018-06-05T12:30:48.803Z,10.73
2018-06-05T12:33:15.788Z,11.03
2018-06-05T12:35:42.697Z,10.47
2018-06-05T12:38:09.702Z,10.50
2018-06-05T12:40:36.673Z,10.73
2018-06-05T12:43:03.599Z,9.07
2018-06-05T12:45:30.566Z,10.07
2018-06-05T12:47:57.737Z,9.43
2018-06-05T12:50:25.452Z,9.47
2018-06-05T12:52:52.461Z,9.30
2018-06-05T12:55:20.187Z,8.03
2018-06-05T12:57:47.099Z,8.60
2018-06-05T13:00:14.065Z,9.27
2018-06-05T13:02:41.028Z,9.67
2018-06-05T13:05:08.070Z,8.70
2018-06-05T13:07:35.033Z,8.53
2018-06-05T13:10:01.938Z,8.13
2018-06-05T13:12:28.944Z,7.50
2018-06-05T13:14:58.268Z,8.70
2018-06-05T13:17:26.100Z,7.90
2018-06-05T13:19:55.023Z,7.53
2018-06-05T13:22:22.714Z,8.90
2018-06-05T13:24:50.637Z,8.10
2018-06-05T13:27:17.804Z,7.60
2018-06-05T13:29:48.138Z,7.10
2018-06-05T13:32:15.421Z,7.30
2018-06-05T13:34:44.062Z,7.40
2018-06-05T13:37:13.078Z,6.73
2018-06-05T13:39:40.739Z,7.20
2018-06-05T13:42:07.906Z,6.93
2018-06-05T13:44:35.473Z,7.43
2018-06-05T13:47:05.573Z,7.67
2018-06-05T13:49:32.584Z,6.90
2018-06-05T13:52:00.637Z,6.40
2018-06-05T13:54:27.517Z,8.17
2018-06-05T13:56:54.565Z,7.10
2018-06-05T13:59:22.660Z,6.13
2018-06-05T14:01:50.122Z,6.90
2018-06-05T14:04:17.317Z,7.53
2018-06-05T14:06:44.324Z,6.60
2018-06-05T14:09:11.334Z,5.77
2018-06-05T14:11:40.394Z,7.33
2018-06-05T14:14:07.269Z,6.77
2018-06-05T14:16:35.241Z,6.73
2018-06-05T14:19:03.892Z,6.13
2018-06-05T14:21:31.651Z,6.67
2018-06-05T14:23:58.753Z,6.80
2018-06-05T14:26:25.683Z,5.60
2018-06-05T14:28:53.185Z,6.50
2018-06-05T14:31:21.774Z,6.90
2018-06-05T14:33:48.841Z,6.20
2018-06-05T14:36:15.755Z,6.33
2018-06-05T14:38:42.731Z,6.10
2018-06-05T14:41:09.673Z,6.47
2018-06-05T14:43:37.025Z,6.43
2018-06-05T14:46:03.970Z,6.50
2018-06-05T14:48:30.937Z,5.53
2018-06-05T14:50:57.824Z,6.17
2018-06-05T14:53:27.770Z,5.40
2018-06-05T14:56:03.916Z,6.20
2018-06-05T14:58:31.017Z,6.10
2018-06-05T15:00:57.925Z,6.13
2018-06-05T15:03:24.917Z,5.50
2018-06-05T15:05:51.884Z,6.20
2018-06-05T15:08:19.558Z,5.77
2018-06-05T15:10:47.597Z,6.87
2018-06-05T15:13:16.121Z,6.33
2018-06-05T15:15:46.379Z,6.13
2018-06-05T15:18:13.935Z,6.60
2018-06-05T15:20:41.887Z,6.60
2018-06-05T15:23:09.275Z,5.27
2018-06-05T15:25:36.485Z,5.93
2018-06-05T15:28:03.483Z,5.67
2018-06-05T15:30:30.445Z,6.00
2018-06-05T15:32:57.348Z,4.53
2018-06-05T15:35:24.409Z,4.90
2018-06-05T15:37:51.348Z,4.80
2018-06-05T15:40:21.101Z,4.70
2018-06-05T15:42:48.288Z,4.47
2018-06-05T15:45:15.886Z,4.30
2018-06-05T15:47:42.939Z,4.30
2018-06-05T15:50:10.802Z,4.03
2018-06-05T15:52:37.988Z,3.90
2018-06-05T15:55:10.826Z,3.60
2018-06-05T15:57:39.117Z,3.40
2018-06-05T16:00:06.176Z,3.87
2018-06-05T16:02:33.161Z,3.47
2018-06-05T16:05:00.202Z,3.20
2018-06-05T16:07:28.916Z,3.20
2018-06-05T16:09:55.902Z,3.10
2018-06-05T16:12:22.911Z,3.10
2018-06-05T16:14:49.980Z,3.10
2018-06-05T16:17:16.866Z,2.37
2018-06-05T16:19:46.707Z,2.40
2018-06-05T16:22:14.037Z,3.10
2018-06-05T16:24:43.776Z,2.67
2018-06-05T16:27:10.715Z,2.90
2018-06-05T16:29:38.441Z,2.70
2018-06-05T16:32:05.831Z,2.63
2018-06-05T16:34:32.892Z,3.37
2018-06-05T16:37:00.389Z,3.70
2018-06-05T16:39:28.425Z,3.30
2018-06-05T16:41:57.323Z,3.43
2018-06-05T16:44:26.693Z,3.60
2018-06-05T16:46:53.744Z,3.87
2018-06-05T16:49:23.767Z,3.53
2018-06-05T16:51:50.855Z,4.13
2018-06-05T16:54:17.758Z,6.20
2018-06-05T16:56:44.769Z,4.50
2018-06-05T16:59:14.413Z,7.93
2018-06-05T17:01:41.329Z,6.10
2018-06-05T17:04:08.334Z,7.93
2018-06-05T17:06:35.311Z,8.70
2018-06-05T17:09:02.362Z,6.37
2018-06-05T17:11:29.466Z,10.00
2018-06-05T17:13:57.130Z,5.87
2018-06-05T17:16:24.132Z,7.73
2018-06-05T17:18:51.165Z,8.63
2018-06-05T17:21:18.106Z,5.97
2018-06-05T17:24:02.125Z,6.53
2018-06-05T17:26:30.122Z,10.07
2018-06-05T17:28:57.021Z,7.70
2018-06-05T17:31:23.997Z,5.87
2018-06-05T17:33:50.992Z,7.00
2018-06-05T17:36:17.894Z,6.40
2018-06-05T17:38:44.847Z,6.43
2018-06-05T17:41:13.003Z,7.50
2018-06-05T17:43:41.279Z,7.07
2018-06-05T17:46:13.787Z,6.53
2018-06-05T17:48:42.269Z,6.40
2018-06-05T17:51:10.110Z,6.50
2018-06-05T17:53:38.789Z,8.77
2018-06-05T17:56:07.581Z,8.50
2018-06-05T17:58:35.402Z,6.87
2018-06-05T18:01:08.799Z,7.17
2018-06-05T18:03:42.419Z,12.63
2018-06-05T18:06:14.223Z,8.13
2018-06-05T18:08:41.237Z,11.40
2018-06-05T18:11:10.817Z,9.80
2018-06-05T18:13:38.284Z,9.90
2018-06-05T18:16:07.976Z,14.60
2018-06-05T18:18:43.548Z,11.80
2018-06-05T18:21:13.840Z,10.73
2018-06-05T18:23:41.252Z,11.53
2018-06-05T18:26:09.305Z,12.50
2018-06-05T18:28:37.203Z,13.63
2018-06-05T18:31:09.321Z,12.83
2018-06-05T18:33:36.573Z,13.00
2018-06-05T18:36:04.034Z,13.80
2018-06-05T18:38:30.921Z,14.57
2018-06-05T18:40:59.700Z,11.10
2018-06-05T18:43:29.783Z,10.93
2018-06-05T18:45:57.429Z,12.57
2018-06-05T18:48:24.418Z,12.57
2018-06-05T18:50:51.349Z,15.00
2018-06-05T18:53:18.274Z,12.97
2018-06-05T18:55:45.949Z,14.60
2018-06-05T18:58:14.205Z,15.90
2018-06-05T19:00:41.215Z,15.77
2018-06-05T19:03:08.247Z,15.50
2018-06-05T19:05:36.153Z,16.20
2018-06-05T19:08:03.093Z,15.60
2018-06-05T19:10:30.014Z,14.33
2018-06-05T19:12:57.708Z,14.90
2018-06-05T19:15:24.723Z,14.07
2018-06-05T19:17:51.704Z,14.80
2018-06-05T19:20:18.607Z,14.50
2018-06-05T19:22:45.610Z,14.93
2018-06-05T19:25:12.620Z,16.93
2018-06-05T19:27:40.445Z,16.13
2018-06-05T19:30:07.486Z,18.00
2018-06-05T19:32:34.627Z,18.80
2018-06-05T19:35:01.611Z,18.13
2018-06-05T19:37:29.464Z,19.50
2018-06-05T19:39:56.707Z,19.10
2018-06-05T19:42:24.736Z,18.80
2018-06-05T19:44:51.908Z,19.90
2018-06-05T19:47:19.179Z,19.63
2018-06-05T19:49:46.510Z,18.90
2018-06-05T19:52:13.471Z,19.30
2018-06-05T19:54:40.450Z,19.13
2018-06-05T19:57:08.242Z,15.93
2018-06-05T19:59:36.251Z,15.20
2018-06-05T20:02:03.339Z,15.33
2018-06-05T20:04:30.612Z,15.73
2018-06-05T20:06:58.381Z,15.57
2018-06-05T20:09:25.389Z,15.60
2018-06-05T20:11:52.458Z,14.67
2018-06-05T20:14:19.554Z,15.00
2018-06-05T20:16:46.568Z,15.93
2018-06-05T20:19:13.538Z,14.97
2018-06-05T20:21:41.281Z,14.40
2018-06-05T20:24:08.241Z,14.83
2018-06-05T20:26:35.937Z,14.07
2018-06-05T20:29:03.998Z,15.60
2018-06-05T20:31:31.419Z,16.60
2018-06-05T20:33:58.604Z,15.80
2018-06-05T20:36:25.507Z,14.20
2018-06-05T20:38:59.291Z,15.30
2018-06-05T20:41:26.677Z,15.27
2018-06-05T20:43:53.566Z,16.83
2018-06-05T20:46:20.793Z,15.10
2018-06-05T20:48:47.717Z,14.60
2018-06-05T20:51:14.593Z,16.23
2018-06-05T20:53:52.362Z,14.93
2018-06-05T20:56:20.209Z,14.93
2018-06-05T20:58:47.213Z,15.17
2018-06-05T21:01:14.170Z,15.57
2018-06-05T21:03:41.041Z,15.67
2018-06-05T21:06:14.634Z,15.77
2018-06-05T21:08:41.541Z,16.20
2018-06-05T21:11:09.270Z,16.63
2018-06-05T21:13:40.592Z,15.13
2018-06-05T21:16:07.513Z,15.43
2018-06-05T21:18:34.709Z,16.33
2018-06-05T21:21:02.378Z,14.80
2018-06-05T21:23:29.438Z,17.13
2018-06-05T21:25:57.068Z,17.17
2018-06-05T21:28:24.070Z,17.10
2018-06-05T21:31:06.731Z,16.60
2018-06-05T21:33:42.123Z,15.97
2018-06-05T21:36:09.151Z,16.13
2018-06-05T21:38:36.262Z,18.40
2018-06-05T21:41:15.957Z,17.63
2018-06-05T21:43:49.576Z,16.90
2018-06-05T21:46:17.107Z,17.30
2018-06-05T21:48:57.117Z,17.13
2018-06-05T21:51:38.302Z,17.63
2018-06-05T21:54:06.200Z,17.93
2018-06-05T21:56:38.576Z,16.33
2018-06-05T21:59:15.796Z,19.57
2018-06-05T22:01:42.968Z,18.37
2018-06-05T22:04:11.813Z,19.27
2018-06-05T22:06:42.771Z,18.10
2018-06-05T22:09:09.985Z,19.47
2018-06-05T22:11:43.019Z,19.57
2018-06-05T22:14:12.308Z,18.33
2018-06-05T22:16:39.933Z,20.60
2018-06-05T22:19:06.828Z,18.10
2018-06-05T22:21:34.779Z,20.37
2018-06-05T22:24:02.404Z,19.77
2018-06-05T22:26:29.445Z,21.70
2018-06-05T22:28:56.357Z,19.27
2018-06-05T22:31:23.330Z,20.40
2018-06-05T22:33:50.279Z,20.93
2018-06-05T22:36:17.228Z,21.03
2018-06-05T22:38:44.336Z,20.43
2018-06-05T22:41:12.004Z,21.33
2018-06-05T22:43:39.693Z,19.80
2018-06-05T22:46:06.595Z,21.27
2018-06-05T22:48:34.361Z,20.33
2018-06-05T22:51:02.195Z,21.10
2018-06-05T22:53:29.121Z,20.50
2018-06-05T22:55:56.230Z,20.50
2018-06-05T22:58:23.148Z,19.37
2018-06-05T23:00:50.100Z,21.10
2018-06-05T23:03:16.969Z,19.47
2018-06-05T23:05:44.820Z,19.93
2018-06-05T23:08:12.528Z,21.83
2018-06-05T23:10:39.501Z,25.70
2018-06-05T23:13:06.387Z,21.17
2018-06-05T23:15:34.092Z,22.40
2018-06-05T23:18:00.973Z,21.57
2018-06-05T23:20:27.917Z,22.23
2018-06-05T23:22:54.906Z,22.00
2018-06-05T23:25:22.607Z,20.93
2018-06-05T23:27:49.643Z,21.83
2018-06-05T23:30:16.562Z,21.77
2018-06-05T23:32:43.501Z,20.87
2018-06-05T23:35:11.194Z,21.20
2018-06-05T23:37:38.131Z,24.33
2018-06-05T23:40:05.152Z,21.00
2018-06-05T23:42:32.105Z,20.63
2018-06-05T23:44:59.061Z,20.73
2018-06-05T23:47:26.042Z,22.13
2018-06-05T23:49:52.929Z,21.07
2018-06-05T23:52:19.817Z,21.27
2018-06-05T23:54:46.745Z,19.13
2018-06-05T23:57:13.630Z,21.17
2018-06-05T23:59:40.596Z,19.17
